sensor_id;sensor_type;location;lat;lon;timestamp;P1;durP1;ratioP1;P2;durP2;ratioP2
18280;SDS011;9266;51.132;17.062;2023-07-29T00:01:43;5.17;;;4.67;;
18280;SDS011;9266;51.132;17.062;2023-07-29T00:04:11;5.20;;;4.53;;
18280;SDS011;9266;51.132;17.062;2023-07-29T00:06:40;6.60;;;4.70;;
18280;SDS011;9266;51.132;17.062;2023-07-29T00:09:07;5.23;;;4.67;;
18280;SDS011;9266;51.132;17.062;2023-07-29T00:11:33;4.90;;;4.50;;
18280;SDS011;9266;51.132;17.062;2023-07-29T00:14:00;8.37;;;5.43;;
18280;SDS011;9266;51.132;17.062;2023-07-29T00:16:28;5.23;;;4.73;;
18280;SDS011;9266;51.132;17.062;2023-07-29T00:18:55;5.20;;;4.70;;
18280;SDS011;9266;51.132;17.062;2023-07-29T00:21:22;5.83;;;5.03;;
18280;SDS011;9266;51.132;17.062;2023-07-29T00:23:50;7.23;;;5.50;;
18280;SDS011;9266;51.132;17.062;2023-07-29T00:26:17;5.70;;;4.87;;
18280;SDS011;9266;51.132;17.062;2023-07-29T00:28:44;6.17;;;5.53;;
18280;SDS011;9266;51.132;17.062;2023-07-29T00:31:11;9.37;;;5.50;;
18280;SDS011;9266;51.132;17.062;2023-07-29T00:33:38;5.70;;;5.13;;
18280;SDS011;9266;51.132;17.062;2023-07-29T00:36:05;7.33;;;4.80;;
18280;SDS011;9266;51.132;17.062;2023-07-29T00:38:32;5.67;;;5.17;;
18280;SDS011;9266;51.132;17.062;2023-07-29T00:41:01;5.70;;;5.10;;
18280;SDS011;9266;51.132;17.062;2023-07-29T00:43:29;6.33;;;5.47;;
18280;SDS011;9266;51.132;17.062;2023-07-29T00:45:56;5.90;;;5.30;;
18280;SDS011;9266;51.132;17.062;2023-07-29T00:48:23;6.40;;;5.57;;
18280;SDS011;9266;51.132;17.062;2023-07-29T00:50:51;9.33;;;5.73;;
18280;SDS011;9266;51.132;17.062;2023-07-29T00:53:18;9.57;;;5.90;;
18280;SDS011;9266;51.132;17.062;2023-07-29T00:55:45;7.93;;;5.27;;
18280;SDS011;9266;51.132;17.062;2023-07-29T00:58:14;9.30;;;5.90;;
18280;SDS011;9266;51.132;17.062;2023-07-29T01:00:41;6.17;;;5.47;;
18280;SDS011;9266;51.132;17.062;2023-07-29T01:03:08;6.13;;;5.40;;
18280;SDS011;9266;51.132;17.062;2023-07-29T01:05:36;8.77;;;6.50;;
18280;SDS011;9266;51.132;17.062;2023-07-29T01:08:12;8.23;;;6.30;;
18280;SDS011;9266;51.132;17.062;2023-07-29T01:10:51;7.80;;;6.10;;
18280;SDS011;9266;51.132;17.062;2023-07-29T01:16:34;7.17;;;6.33;;
18280;SDS011;9266;51.132;17.062;2023-07-29T01:19:07;7.30;;;6.60;;
18280;SDS011;9266;51.132;17.062;2023-07-29T01:21:47;7.67;;;6.23;;
18280;SDS011;9266;51.132;17.062;2023-07-29T01:24:15;8.07;;;6.77;;
18280;SDS011;9266;51.132;17.062;2023-07-29T01:26:42;9.00;;;6.97;;
18280;SDS011;9266;51.132;17.062;2023-07-29T01:29:09;7.87;;;7.07;;
18280;SDS011;9266;51.132;17.062;2023-07-29T01:31:37;7.40;;;6.50;;
18280;SDS011;9266;51.132;17.062;2023-07-29T01:34:11;8.73;;;7.00;;
18280;SDS011;9266;51.132;17.062;2023-07-29T01:36:43;7.77;;;6.97;;
18280;SDS011;9266;51.132;17.062;2023-07-29T01:39:12;7.67;;;6.87;;
18280;SDS011;9266;51.132;17.062;2023-07-29T01:41:41;7.43;;;6.73;;
18280;SDS011;9266;51.132;17.062;2023-07-29T01:44:10;7.30;;;6.60;;
18280;SDS011;9266;51.132;17.062;2023-07-29T01:46:38;7.63;;;6.83;;
18280;SDS011;9266;51.132;17.062;2023-07-29T01:49:05;7.83;;;7.00;;
18280;SDS011;9266;51.132;17.062;2023-07-29T01:51:32;8.27;;;6.53;;
18280;SDS011;9266;51.132;17.062;2023-07-29T01:53:59;8.33;;;7.43;;
18280;SDS011;9266;51.132;17.062;2023-07-29T01:56:26;7.77;;;6.83;;
18280;SDS011;9266;51.132;17.062;2023-07-29T01:58:55;9.17;;;7.40;;
18280;SDS011;9266;51.132;17.062;2023-07-29T02:01:22;8.50;;;7.60;;
18280;SDS011;9266;51.132;17.062;2023-07-29T02:03:49;8.17;;;7.37;;
18280;SDS011;9266;51.132;17.062;2023-07-29T02:06:20;7.70;;;7.00;;
18280;SDS011;9266;51.132;17.062;2023-07-29T02:08:47;9.50;;;7.67;;
18280;SDS011;9266;51.132;17.062;2023-07-29T02:11:14;8.40;;;7.57;;
18280;SDS011;9266;51.132;17.062;2023-07-29T02:13:41;10.13;;;8.00;;
18280;SDS011;9266;51.132;17.062;2023-07-29T02:16:10;9.50;;;7.43;;
18280;SDS011;9266;51.132;17.062;2023-07-29T02:18:37;8.17;;;7.37;;
18280;SDS011;9266;51.132;17.062;2023-07-29T02:21:04;8.90;;;7.57;;
18280;SDS011;9266;51.132;17.062;2023-07-29T02:23:31;8.50;;;7.70;;
18280;SDS011;9266;51.132;17.062;2023-07-29T02:25:58;8.97;;;8.00;;
18280;SDS011;9266;51.132;17.062;2023-07-29T02:28:25;10.07;;;7.63;;
18280;SDS011;9266;51.132;17.062;2023-07-29T02:33:40;8.53;;;7.60;;
18280;SDS011;9266;51.132;17.062;2023-07-29T02:36:07;9.10;;;7.70;;
18280;SDS011;9266;51.132;17.062;2023-07-29T02:38:34;8.23;;;7.33;;
18280;SDS011;9266;51.132;17.062;2023-07-29T02:41:01;8.97;;;8.07;;
18280;SDS011;9266;51.132;17.062;2023-07-29T02:43:28;8.90;;;8.10;;
18280;SDS011;9266;51.132;17.062;2023-07-29T02:45:55;8.00;;;7.20;;
18280;SDS011;9266;51.132;17.062;2023-07-29T02:48:24;8.73;;;7.57;;
18280;SDS011;9266;51.132;17.062;2023-07-29T02:50:51;7.63;;;6.83;;
18280;SDS011;9266;51.132;17.062;2023-07-29T02:53:18;8.33;;;7.23;;
18280;SDS011;9266;51.132;17.062;2023-07-29T02:55:45;9.03;;;7.20;;
18280;SDS011;9266;51.132;17.062;2023-07-29T02:58:12;8.57;;;6.97;;
18280;SDS011;9266;51.132;17.062;2023-07-29T03:00:39;8.87;;;7.13;;
18280;SDS011;9266;51.132;17.062;2023-07-29T03:03:07;12.10;;;8.00;;
18280;SDS011;9266;51.132;17.062;2023-07-29T03:05:36;10.00;;;7.70;;
18280;SDS011;9266;51.132;17.062;2023-07-29T03:08:03;8.63;;;7.43;;
18280;SDS011;9266;51.132;17.062;2023-07-29T03:10:30;7.83;;;7.13;;
18280;SDS011;9266;51.132;17.062;2023-07-29T03:12:57;8.90;;;8.00;;
18280;SDS011;9266;51.132;17.062;2023-07-29T03:15:24;8.50;;;7.37;;
18280;SDS011;9266;51.132;17.062;2023-07-29T03:17:51;9.33;;;8.17;;
18280;SDS011;9266;51.132;17.062;2023-07-29T03:20:19;8.30;;;7.43;;
18280;SDS011;9266;51.132;17.062;2023-07-29T03:22:48;8.70;;;7.90;;
18280;SDS011;9266;51.132;17.062;2023-07-29T03:25:15;8.53;;;7.43;;
18280;SDS011;9266;51.132;17.062;2023-07-29T03:27:43;8.20;;;7.40;;
18280;SDS011;9266;51.132;17.062;2023-07-29T03:30:10;8.70;;;7.00;;
18280;SDS011;9266;51.132;17.062;2023-07-29T03:32:38;8.97;;;8.03;;
18280;SDS011;9266;51.132;17.062;2023-07-29T03:35:10;9.57;;;7.30;;
18280;SDS011;9266;51.132;17.062;2023-07-29T03:37:37;12.93;;;9.83;;
18280;SDS011;9266;51.132;17.062;2023-07-29T03:40:06;8.17;;;7.37;;
18280;SDS011;9266;51.132;17.062;2023-07-29T03:42:34;8.37;;;6.17;;
18280;SDS011;9266;51.132;17.062;2023-07-29T03:45:01;6.57;;;6.00;;
18280;SDS011;9266;51.132;17.062;2023-07-29T03:47:28;8.80;;;5.80;;
18280;SDS011;9266;51.132;17.062;2023-07-29T03:49:55;9.90;;;6.40;;
18280;SDS011;9266;51.132;17.062;2023-07-29T03:52:22;8.10;;;5.77;;
18280;SDS011;9266;51.132;17.062;2023-07-29T03:54:49;6.50;;;5.37;;
18280;SDS011;9266;51.132;17.062;2023-07-29T03:57:18;6.57;;;5.63;;
18280;SDS011;9266;51.132;17.062;2023-07-29T03:59:45;6.10;;;5.37;;
18280;SDS011;9266;51.132;17.062;2023-07-29T04:02:12;7.27;;;5.63;;
18280;SDS011;9266;51.132;17.062;2023-07-29T04:04:39;6.70;;;5.57;;
18280;SDS011;9266;51.132;17.062;2023-07-29T04:07:07;8.77;;;6.07;;
18280;SDS011;9266;51.132;17.062;2023-07-29T04:09:34;6.07;;;5.47;;
18280;SDS011;9266;51.132;17.062;2023-07-29T04:12:01;7.47;;;5.30;;
18280;SDS011;9266;51.132;17.062;2023-07-29T04:14:29;6.73;;;5.93;;
18280;SDS011;9266;51.132;17.062;2023-07-29T04:16:57;7.97;;;5.90;;
18280;SDS011;9266;51.132;17.062;2023-07-29T04:19:24;7.37;;;5.20;;
18280;SDS011;9266;51.132;17.062;2023-07-29T04:21:51;8.23;;;5.57;;
18280;SDS011;9266;51.132;17.062;2023-07-29T04:24:18;7.97;;;5.17;;
18280;SDS011;9266;51.132;17.062;2023-07-29T04:26:45;7.17;;;5.30;;
18280;SDS011;9266;51.132;17.062;2023-07-29T04:29:12;6.30;;;5.27;;
18280;SDS011;9266;51.132;17.062;2023-07-29T04:31:40;6.43;;;5.07;;
18280;SDS011;9266;51.132;17.062;2023-07-29T04:34:07;5.40;;;4.60;;
18280;SDS011;9266;51.132;17.062;2023-07-29T04:36:35;4.47;;;4.07;;
18280;SDS011;9266;51.132;17.062;2023-07-29T04:39:02;5.00;;;4.00;;
18280;SDS011;9266;51.132;17.062;2023-07-29T04:41:29;5.13;;;4.03;;
18280;SDS011;9266;51.132;17.062;2023-07-29T04:43:56;4.67;;;4.17;;
18280;SDS011;9266;51.132;17.062;2023-07-29T04:46:23;4.50;;;3.50;;
18280;SDS011;9266;51.132;17.062;2023-07-29T04:48:51;7.57;;;4.17;;
18280;SDS011;9266;51.132;17.062;2023-07-29T04:51:18;7.83;;;4.07;;
18280;SDS011;9266;51.132;17.062;2023-07-29T04:53:45;6.03;;;4.07;;
18280;SDS011;9266;51.132;17.062;2023-07-29T04:56:12;5.20;;;4.10;;
18280;SDS011;9266;51.132;17.062;2023-07-29T04:58:39;5.57;;;4.13;;
18280;SDS011;9266;51.132;17.062;2023-07-29T05:01:06;5.07;;;3.80;;
18280;SDS011;9266;51.132;17.062;2023-07-29T05:03:33;3.90;;;3.50;;
18280;SDS011;9266;51.132;17.062;2023-07-29T05:06:03;8.33;;;3.60;;
18280;SDS011;9266;51.132;17.062;2023-07-29T05:08:30;3.83;;;3.40;;
18280;SDS011;9266;51.132;17.062;2023-07-29T05:10:57;4.83;;;3.17;;
18280;SDS011;9266;51.132;17.062;2023-07-29T05:13:24;3.93;;;3.00;;
18280;SDS011;9266;51.132;17.062;2023-07-29T05:15:51;3.08;;;2.78;;
18280;SDS011;9266;51.132;17.062;2023-07-29T05:18:18;4.57;;;3.00;;
18280;SDS011;9266;51.132;17.062;2023-07-29T05:20:45;6.13;;;3.10;;
18280;SDS011;9266;51.132;17.062;2023-07-29T05:23:14;5.43;;;2.88;;
18280;SDS011;9266;51.132;17.062;2023-07-29T05:25:41;4.90;;;2.97;;
18280;SDS011;9266;51.132;17.062;2023-07-29T05:28:08;4.15;;;2.45;;
18280;SDS011;9266;51.132;17.062;2023-07-29T05:30:35;4.15;;;2.67;;
18280;SDS011;9266;51.132;17.062;2023-07-29T05:33:04;4.45;;;2.60;;
18280;SDS011;9266;51.132;17.062;2023-07-29T05:35:32;5.93;;;2.70;;
18280;SDS011;9266;51.132;17.062;2023-07-29T05:38:00;3.65;;;2.58;;
18280;SDS011;9266;51.132;17.062;2023-07-29T05:40:29;9.02;;;2.50;;
18280;SDS011;9266;51.132;17.062;2023-07-29T05:42:58;4.35;;;2.60;;
18280;SDS011;9266;51.132;17.062;2023-07-29T05:45:25;3.97;;;2.78;;
18280;SDS011;9266;51.132;17.062;2023-07-29T05:47:52;3.80;;;2.30;;
18280;SDS011;9266;51.132;17.062;2023-07-29T05:50:19;5.20;;;2.38;;
18280;SDS011;9266;51.132;17.062;2023-07-29T05:52:46;3.38;;;2.42;;
18280;SDS011;9266;51.132;17.062;2023-07-29T05:55:13;3.67;;;2.30;;
18280;SDS011;9266;51.132;17.062;2023-07-29T05:57:41;3.60;;;2.30;;
18280;SDS011;9266;51.132;17.062;2023-07-29T06:00:08;4.43;;;2.28;;
18280;SDS011;9266;51.132;17.062;2023-07-29T06:02:36;2.30;;;2.10;;
18280;SDS011;9266;51.132;17.062;2023-07-29T06:05:04;3.53;;;2.28;;
18280;SDS011;9266;51.132;17.062;2023-07-29T06:07:32;3.15;;;2.50;;
18280;SDS011;9266;51.132;17.062;2023-07-29T06:09:59;3.80;;;2.28;;
18280;SDS011;9266;51.132;17.062;2023-07-29T06:12:26;5.10;;;2.20;;
18280;SDS011;9266;51.132;17.062;2023-07-29T06:14:54;5.35;;;2.55;;
18280;SDS011;9266;51.132;17.062;2023-07-29T06:17:21;3.15;;;2.22;;
18280;SDS011;9266;51.132;17.062;2023-07-29T06:19:48;2.22;;;2.03;;
18280;SDS011;9266;51.132;17.062;2023-07-29T06:22:15;3.95;;;2.30;;
18280;SDS011;9266;51.132;17.062;2023-07-29T06:24:42;2.85;;;1.95;;
18280;SDS011;9266;51.132;17.062;2023-07-29T06:27:09;3.97;;;2.00;;
18280;SDS011;9266;51.132;17.062;2023-07-29T06:29:36;3.17;;;2.20;;
18280;SDS011;9266;51.132;17.062;2023-07-29T06:32:05;2.72;;;1.88;;
18280;SDS011;9266;51.132;17.062;2023-07-29T06:34:32;3.47;;;1.98;;
18280;SDS011;9266;51.132;17.062;2023-07-29T06:36:59;2.88;;;1.80;;
18280;SDS011;9266;51.132;17.062;2023-07-29T06:39:26;3.30;;;1.70;;
18280;SDS011;9266;51.132;17.062;2023-07-29T06:41:53;3.92;;;1.85;;
18280;SDS011;9266;51.132;17.062;2023-07-29T06:44:20;2.70;;;2.00;;
18280;SDS011;9266;51.132;17.062;2023-07-29T06:46:47;2.38;;;1.60;;
18280;SDS011;9266;51.132;17.062;2023-07-29T06:49:15;2.13;;;1.92;;
18280;SDS011;9266;51.132;17.062;2023-07-29T06:51:42;2.80;;;1.88;;
18280;SDS011;9266;51.132;17.062;2023-07-29T06:54:09;2.35;;;1.60;;
18280;SDS011;9266;51.132;17.062;2023-07-29T06:56:36;4.15;;;1.75;;
18280;SDS011;9266;51.132;17.062;2023-07-29T06:59:03;2.85;;;1.95;;
18280;SDS011;9266;51.132;17.062;2023-07-29T07:01:30;1.85;;;1.60;;
18280;SDS011;9266;51.132;17.062;2023-07-29T07:03:57;2.83;;;1.77;;
18280;SDS011;9266;51.132;17.062;2023-07-29T07:06:25;2.47;;;1.80;;
18280;SDS011;9266;51.132;17.062;2023-07-29T07:08:52;3.08;;;1.75;;
18280;SDS011;9266;51.132;17.062;2023-07-29T07:11:19;2.72;;;1.70;;
18280;SDS011;9266;51.132;17.062;2023-07-29T07:13:46;2.55;;;1.90;;
18280;SDS011;9266;51.132;17.062;2023-07-29T07:16:13;3.00;;;2.20;;
18280;SDS011;9266;51.132;17.062;2023-07-29T07:18:40;4.70;;;1.65;;
18280;SDS011;9266;51.132;17.062;2023-07-29T07:21:07;2.10;;;1.70;;
18280;SDS011;9266;51.132;17.062;2023-07-29T07:23:35;2.40;;;1.88;;
18280;SDS011;9266;51.132;17.062;2023-07-29T07:26:03;2.75;;;1.90;;
18280;SDS011;9266;51.132;17.062;2023-07-29T07:28:30;4.97;;;1.92;;
18280;SDS011;9266;51.132;17.062;2023-07-29T07:30:56;2.08;;;1.88;;
18280;SDS011;9266;51.132;17.062;2023-07-29T07:33:24;4.28;;;2.00;;
18280;SDS011;9266;51.132;17.062;2023-07-29T07:35:51;3.78;;;1.67;;
18280;SDS011;9266;51.132;17.062;2023-07-29T07:38:18;2.88;;;2.00;;
18280;SDS011;9266;51.132;17.062;2023-07-29T07:40:53;3.60;;;2.15;;
18280;SDS011;9266;51.132;17.062;2023-07-29T07:43:21;3.40;;;2.00;;
18280;SDS011;9266;51.132;17.062;2023-07-29T07:45:48;3.42;;;1.90;;
18280;SDS011;9266;51.132;17.062;2023-07-29T07:48:15;4.90;;;2.05;;
18280;SDS011;9266;51.132;17.062;2023-07-29T07:50:42;3.63;;;2.65;;
18280;SDS011;9266;51.132;17.062;2023-07-29T07:53:09;6.88;;;1.95;;
18280;SDS011;9266;51.132;17.062;2023-07-29T07:55:37;2.45;;;1.73;;
18280;SDS011;9266;51.132;17.062;2023-07-29T07:58:06;3.38;;;2.00;;
18280;SDS011;9266;51.132;17.062;2023-07-29T08:00:33;3.53;;;1.75;;
18280;SDS011;9266;51.132;17.062;2023-07-29T08:03:00;4.25;;;1.95;;
18280;SDS011;9266;51.132;17.062;2023-07-29T08:05:27;2.78;;;1.77;;
18280;SDS011;9266;51.132;17.062;2023-07-29T08:07:54;2.97;;;2.00;;
18280;SDS011;9266;51.132;17.062;2023-07-29T08:10:22;4.97;;;2.60;;
18280;SDS011;9266;51.132;17.062;2023-07-29T08:12:49;3.25;;;2.20;;
18280;SDS011;9266;51.132;17.062;2023-07-29T08:15:17;2.42;;;1.90;;
18280;SDS011;9266;51.132;17.062;2023-07-29T08:17:45;2.72;;;1.92;;
18280;SDS011;9266;51.132;17.062;2023-07-29T08:20:12;3.33;;;1.92;;
18280;SDS011;9266;51.132;17.062;2023-07-29T08:22:39;2.00;;;1.77;;
18280;SDS011;9266;51.132;17.062;2023-07-29T08:25:06;3.88;;;2.08;;
18280;SDS011;9266;51.132;17.062;2023-07-29T08:27:34;2.53;;;1.55;;
18280;SDS011;9266;51.132;17.062;2023-07-29T08:30:00;2.00;;;1.80;;
18280;SDS011;9266;51.132;17.062;2023-07-29T08:32:29;1.98;;;1.80;;
18280;SDS011;9266;51.132;17.062;2023-07-29T08:34:57;3.05;;;1.90;;
18280;SDS011;9266;51.132;17.062;2023-07-29T08:37:24;2.38;;;2.00;;
18280;SDS011;9266;51.132;17.062;2023-07-29T08:39:52;4.60;;;2.50;;
18280;SDS011;9266;51.132;17.062;2023-07-29T08:42:20;2.10;;;1.88;;
18280;SDS011;9266;51.132;17.062;2023-07-29T08:44:49;4.05;;;2.10;;
18280;SDS011;9266;51.132;17.062;2023-07-29T08:47:17;2.40;;;2.20;;
18280;SDS011;9266;51.132;17.062;2023-07-29T08:49:46;3.00;;;2.20;;
18280;SDS011;9266;51.132;17.062;2023-07-29T08:52:14;2.95;;;1.90;;
18280;SDS011;9266;51.132;17.062;2023-07-29T08:54:42;2.88;;;1.95;;
18280;SDS011;9266;51.132;17.062;2023-07-29T08:57:09;2.78;;;1.80;;
18280;SDS011;9266;51.132;17.062;2023-07-29T08:59:37;2.50;;;2.20;;
18280;SDS011;9266;51.132;17.062;2023-07-29T09:02:04;2.95;;;1.70;;
18280;SDS011;9266;51.132;17.062;2023-07-29T09:04:33;3.38;;;2.88;;
18280;SDS011;9266;51.132;17.062;2023-07-29T09:07:01;1.65;;;1.50;;
18280;SDS011;9266;51.132;17.062;2023-07-29T09:09:29;4.75;;;2.58;;
18280;SDS011;9266;51.132;17.062;2023-07-29T09:11:56;2.47;;;1.67;;
18280;SDS011;9266;51.132;17.062;2023-07-29T09:14:23;3.88;;;2.30;;
18280;SDS011;9266;51.132;17.062;2023-07-29T09:16:50;4.22;;;2.22;;
18280;SDS011;9266;51.132;17.062;2023-07-29T09:19:17;2.95;;;1.80;;
18280;SDS011;9266;51.132;17.062;2023-07-29T09:21:46;1.70;;;1.60;;
18280;SDS011;9266;51.132;17.062;2023-07-29T09:24:16;3.38;;;1.83;;
18280;SDS011;9266;51.132;17.062;2023-07-29T09:26:48;2.58;;;1.63;;
18280;SDS011;9266;51.132;17.062;2023-07-29T09:29:15;3.40;;;1.73;;
18280;SDS011;9266;51.132;17.062;2023-07-29T09:31:47;2.25;;;1.73;;
18280;SDS011;9266;51.132;17.062;2023-07-29T09:34:15;2.20;;;1.80;;
18280;SDS011;9266;51.132;17.062;2023-07-29T09:36:43;1.55;;;1.45;;
18280;SDS011;9266;51.132;17.062;2023-07-29T09:39:10;1.95;;;1.80;;
18280;SDS011;9266;51.132;17.062;2023-07-29T09:41:40;4.15;;;2.15;;
18280;SDS011;9266;51.132;17.062;2023-07-29T09:44:07;2.83;;;1.95;;
18280;SDS011;9266;51.132;17.062;2023-07-29T09:46:34;2.00;;;1.70;;
18280;SDS011;9266;51.132;17.062;2023-07-29T09:49:02;3.08;;;2.00;;
18280;SDS011;9266;51.132;17.062;2023-07-29T09:51:30;2.55;;;1.60;;
18280;SDS011;9266;51.132;17.062;2023-07-29T09:53:57;2.45;;;1.90;;
18280;SDS011;9266;51.132;17.062;2023-07-29T09:56:28;2.25;;;1.95;;
18280;SDS011;9266;51.132;17.062;2023-07-29T09:58:56;1.92;;;1.58;;
18280;SDS011;9266;51.132;17.062;2023-07-29T10:01:24;2.50;;;2.22;;
18280;SDS011;9266;51.132;17.062;2023-07-29T10:03:51;1.80;;;1.70;;
18280;SDS011;9266;51.132;17.062;2023-07-29T10:06:21;2.42;;;1.85;;
18280;SDS011;9266;51.132;17.062;2023-07-29T10:08:49;2.20;;;2.00;;
18280;SDS011;9266;51.132;17.062;2023-07-29T10:11:16;2.10;;;1.90;;
18280;SDS011;9266;51.132;17.062;2023-07-29T10:13:45;2.25;;;2.03;;
18280;SDS011;9266;51.132;17.062;2023-07-29T10:16:14;2.13;;;1.88;;
18280;SDS011;9266;51.132;17.062;2023-07-29T10:18:41;5.13;;;3.00;;
18280;SDS011;9266;51.132;17.062;2023-07-29T10:21:09;3.38;;;2.22;;
18280;SDS011;9266;51.132;17.062;2023-07-29T10:23:40;4.85;;;2.60;;
18280;SDS011;9266;51.132;17.062;2023-07-29T10:26:13;2.50;;;2.30;;
18280;SDS011;9266;51.132;17.062;2023-07-29T10:28:46;3.05;;;1.95;;
18280;SDS011;9266;51.132;17.062;2023-07-29T10:31:18;3.53;;;2.20;;
18280;SDS011;9266;51.132;17.062;2023-07-29T10:33:48;2.33;;;2.13;;
18280;SDS011;9266;51.132;17.062;2023-07-29T10:36:15;4.03;;;2.15;;
18280;SDS011;9266;51.132;17.062;2023-07-29T10:38:43;5.68;;;2.30;;
18280;SDS011;9266;51.132;17.062;2023-07-29T10:41:10;2.30;;;2.10;;
18280;SDS011;9266;51.132;17.062;2023-07-29T10:43:37;5.28;;;2.70;;
18280;SDS011;9266;51.132;17.062;2023-07-29T10:46:18;2.72;;;2.53;;
18280;SDS011;9266;51.132;17.062;2023-07-29T10:48:52;4.80;;;2.70;;
18280;SDS011;9266;51.132;17.062;2023-07-29T10:51:23;2.80;;;2.53;;
18280;SDS011;9266;51.132;17.062;2023-07-29T10:53:55;3.60;;;2.42;;
18280;SDS011;9266;51.132;17.062;2023-07-29T10:56:27;3.75;;;2.80;;
18280;SDS011;9266;51.132;17.062;2023-07-29T10:58:56;2.75;;;2.55;;
18280;SDS011;9266;51.132;17.062;2023-07-29T11:01:29;5.72;;;3.10;;
18280;SDS011;9266;51.132;17.062;2023-07-29T11:07:01;3.47;;;3.13;;
18280;SDS011;9266;51.132;17.062;2023-07-29T11:09:55;4.13;;;2.63;;
18280;SDS011;9266;51.132;17.062;2023-07-29T11:12:36;2.95;;;2.75;;
18280;SDS011;9266;51.132;17.062;2023-07-29T11:15:11;3.33;;;3.03;;
18280;SDS011;9266;51.132;17.062;2023-07-29T11:17:41;3.10;;;2.80;;
18280;SDS011;9266;51.132;17.062;2023-07-29T11:20:09;4.38;;;2.90;;
18280;SDS011;9266;51.132;17.062;2023-07-29T11:22:37;3.13;;;2.83;;
18280;SDS011;9266;51.132;17.062;2023-07-29T11:25:05;4.25;;;3.28;;
18280;SDS011;9266;51.132;17.062;2023-07-29T11:27:34;3.42;;;3.13;;
18280;SDS011;9266;51.132;17.062;2023-07-29T11:30:01;3.33;;;3.03;;
18280;SDS011;9266;51.132;17.062;2023-07-29T11:32:31;3.20;;;3.00;;
18280;SDS011;9266;51.132;17.062;2023-07-29T11:35:02;3.65;;;2.97;;
18280;SDS011;9266;51.132;17.062;2023-07-29T11:37:30;3.38;;;3.08;;
18280;SDS011;9266;51.132;17.062;2023-07-29T11:39:58;3.60;;;2.90;;
18280;SDS011;9266;51.132;17.062;2023-07-29T11:42:26;3.63;;;2.67;;
18280;SDS011;9266;51.132;17.062;2023-07-29T11:44:53;4.32;;;2.70;;
18280;SDS011;9266;51.132;17.062;2023-07-29T11:47:22;3.20;;;2.90;;
18280;SDS011;9266;51.132;17.062;2023-07-29T11:49:49;3.65;;;2.42;;
18280;SDS011;9266;51.132;17.062;2023-07-29T11:52:17;3.33;;;2.30;;
18280;SDS011;9266;51.132;17.062;2023-07-29T11:54:46;3.55;;;2.58;;
18280;SDS011;9266;51.132;17.062;2023-07-29T11:57:15;2.42;;;2.22;;
18280;SDS011;9266;51.132;17.062;2023-07-29T11:59:43;3.47;;;2.55;;
18280;SDS011;9266;51.132;17.062;2023-07-29T12:02:12;2.70;;;2.10;;
18280;SDS011;9266;51.132;17.062;2023-07-29T12:04:41;2.90;;;2.60;;
18280;SDS011;9266;51.132;17.062;2023-07-29T12:07:09;3.53;;;2.25;;
18280;SDS011;9266;51.132;17.062;2023-07-29T12:09:38;2.60;;;2.17;;
18280;SDS011;9266;51.132;17.062;2023-07-29T12:12:06;2.63;;;2.10;;
18280;SDS011;9266;51.132;17.062;2023-07-29T12:14:34;2.53;;;1.80;;
18280;SDS011;9266;51.132;17.062;2023-07-29T12:17:01;2.30;;;2.10;;
18280;SDS011;9266;51.132;17.062;2023-07-29T12:19:32;2.55;;;1.60;;
18280;SDS011;9266;51.132;17.062;2023-07-29T12:22:00;5.07;;;1.92;;
18280;SDS011;9266;51.132;17.062;2023-07-29T12:24:29;2.00;;;1.80;;
18280;SDS011;9266;51.132;17.062;2023-07-29T12:26:57;2.00;;;1.60;;
18280;SDS011;9266;51.132;17.062;2023-07-29T12:29:25;1.90;;;1.60;;
18280;SDS011;9266;51.132;17.062;2023-07-29T12:31:56;2.30;;;2.00;;
18280;SDS011;9266;51.132;17.062;2023-07-29T12:34:25;3.30;;;1.88;;
18280;SDS011;9266;51.132;17.062;2023-07-29T12:36:53;2.20;;;1.75;;
18280;SDS011;9266;51.132;17.062;2023-07-29T12:39:24;2.85;;;2.55;;
18280;SDS011;9266;51.132;17.062;2023-07-29T12:41:52;3.45;;;2.13;;
18280;SDS011;9266;51.132;17.062;2023-07-29T12:44:22;3.53;;;2.10;;
18280;SDS011;9266;51.132;17.062;2023-07-29T12:46:49;5.30;;;1.80;;
18280;SDS011;9266;51.132;17.062;2023-07-29T12:49:16;3.72;;;2.03;;
18280;SDS011;9266;51.132;17.062;2023-07-29T12:51:43;2.42;;;1.75;;
18280;SDS011;9266;51.132;17.062;2023-07-29T12:54:10;5.00;;;2.33;;
18280;SDS011;9266;51.132;17.062;2023-07-29T12:56:37;1.75;;;1.42;;
18280;SDS011;9266;51.132;17.062;2023-07-29T12:59:04;2.60;;;2.13;;
18280;SDS011;9266;51.132;17.062;2023-07-29T13:01:34;5.10;;;2.13;;
18280;SDS011;9266;51.132;17.062;2023-07-29T13:04:01;2.40;;;1.95;;
18280;SDS011;9266;51.132;17.062;2023-07-29T13:06:28;2.35;;;1.70;;
18280;SDS011;9266;51.132;17.062;2023-07-29T13:08:54;3.33;;;2.47;;
18280;SDS011;9266;51.132;17.062;2023-07-29T13:11:21;2.63;;;1.80;;
18280;SDS011;9266;51.132;17.062;2023-07-29T13:13:49;2.28;;;1.77;;
18280;SDS011;9266;51.132;17.062;2023-07-29T13:16:16;4.82;;;2.45;;
18280;SDS011;9266;51.132;17.062;2023-07-29T13:18:44;8.75;;;5.18;;
18280;SDS011;9266;51.132;17.062;2023-07-29T13:21:11;2.92;;;2.25;;
18280;SDS011;9266;51.132;17.062;2023-07-29T13:23:38;3.17;;;2.25;;
18280;SDS011;9266;51.132;17.062;2023-07-29T13:26:05;4.32;;;2.40;;
18280;SDS011;9266;51.132;17.062;2023-07-29T13:28:32;2.78;;;2.10;;
18280;SDS011;9266;51.132;17.062;2023-07-29T13:31:00;3.22;;;2.45;;
18280;SDS011;9266;51.132;17.062;2023-07-29T13:33:28;2.72;;;1.65;;
18280;SDS011;9266;51.132;17.062;2023-07-29T13:36:00;2.00;;;1.77;;
18280;SDS011;9266;51.132;17.062;2023-07-29T13:38:28;2.33;;;1.65;;
18280;SDS011;9266;51.132;17.062;2023-07-29T13:40:55;2.80;;;2.33;;
18280;SDS011;9266;51.132;17.062;2023-07-29T13:43:22;2.30;;;1.50;;
18280;SDS011;9266;51.132;17.062;2023-07-29T13:45:49;2.10;;;1.50;;
18280;SDS011;9266;51.132;17.062;2023-07-29T13:48:16;5.13;;;1.83;;
18280;SDS011;9266;51.132;17.062;2023-07-29T13:50:43;3.13;;;1.77;;
18280;SDS011;9266;51.132;17.062;2023-07-29T13:53:12;2.03;;;1.67;;
18280;SDS011;9266;51.132;17.062;2023-07-29T13:55:39;2.35;;;1.55;;
18280;SDS011;9266;51.132;17.062;2023-07-29T13:58:06;2.13;;;1.70;;
18280;SDS011;9266;51.132;17.062;2023-07-29T14:00:33;2.17;;;1.65;;
18280;SDS011;9266;51.132;17.062;2023-07-29T14:03:00;3.20;;;1.70;;
18280;SDS011;9266;51.132;17.062;2023-07-29T14:05:27;3.45;;;1.77;;
18280;SDS011;9266;51.132;17.062;2023-07-29T14:07:53;2.88;;;1.60;;
18280;SDS011;9266;51.132;17.062;2023-07-29T14:10:22;1.95;;;1.65;;
18280;SDS011;9266;51.132;17.062;2023-07-29T14:12:49;3.40;;;2.15;;
18280;SDS011;9266;51.132;17.062;2023-07-29T14:15:16;3.60;;;2.17;;
18280;SDS011;9266;51.132;17.062;2023-07-29T14:17:43;2.22;;;1.70;;
18280;SDS011;9266;51.132;17.062;2023-07-29T14:20:10;3.97;;;2.00;;
18280;SDS011;9266;51.132;17.062;2023-07-29T14:22:38;2.65;;;1.98;;
18280;SDS011;9266;51.132;17.062;2023-07-29T14:25:05;2.08;;;1.65;;
18280;SDS011;9266;51.132;17.062;2023-07-29T14:27:35;2.00;;;1.65;;
18280;SDS011;9266;51.132;17.062;2023-07-29T14:30:02;3.42;;;1.60;;
18280;SDS011;9266;51.132;17.062;2023-07-29T14:32:29;2.30;;;1.60;;
18280;SDS011;9266;51.132;17.062;2023-07-29T14:34:56;4.28;;;2.22;;
18280;SDS011;9266;51.132;17.062;2023-07-29T14:37:29;1.95;;;1.75;;
18280;SDS011;9266;51.132;17.062;2023-07-29T14:39:57;2.53;;;1.98;;
18280;SDS011;9266;51.132;17.062;2023-07-29T14:42:24;4.55;;;2.00;;
18280;SDS011;9266;51.132;17.062;2023-07-29T14:44:52;4.50;;;1.90;;
18280;SDS011;9266;51.132;17.062;2023-07-29T14:47:20;3.05;;;2.03;;
18280;SDS011;9266;51.132;17.062;2023-07-29T14:49:47;1.75;;;1.50;;
18280;SDS011;9266;51.132;17.062;2023-07-29T14:52:14;2.88;;;1.90;;
18280;SDS011;9266;51.132;17.062;2023-07-29T14:54:41;3.22;;;1.85;;
18280;SDS011;9266;51.132;17.062;2023-07-29T14:57:09;2.22;;;1.80;;
18280;SDS011;9266;51.132;17.062;2023-07-29T14:59:36;2.60;;;1.73;;
18280;SDS011;9266;51.132;17.062;2023-07-29T15:02:05;3.05;;;1.90;;